Terminal Aerodrome Forecast
Issued by NWS

Current Version | Previous Version | Text Only | Print | Product List | Glossary On
Versions: 1 2 3 4 5 6 7 8 9 10 11 12 13 14 15
000
FTUS43 KLSX 310500
TAFUIN
TAF
KUIN 310520Z 3106/0106 35008KT P6SM OVC060
     FM310800 35015G22KT P6SM OVC030
     FM311100 34020G30KT P6SM FEW050
     FM010000 34010KT P6SM SKC=

USA.gov is the U.S. government's official web portal to all federal, state and local government web resources and services.